createdAt,value
2023-12-22T00:00:03.944Z,86929.00
2023-12-22T00:01:03.923Z,86919.00
2023-12-22T00:02:03.956Z,86891.00
2023-12-22T00:03:03.995Z,86895.00
2023-12-22T00:04:03.895Z,86909.00
2023-12-22T00:05:03.952Z,86915.00
2023-12-22T00:06:03.957Z,86913.00
2023-12-22T00:07:03.870Z,86907.00
2023-12-22T00:08:03.978Z,86913.00
2023-12-22T00:09:03.853Z,86911.00
2023-12-22T00:10:03.814Z,86918.00
2023-12-22T00:11:03.781Z,86930.00
2023-12-22T00:12:03.711Z,86925.00
2023-12-22T00:13:03.661Z,86919.00
2023-12-22T00:14:03.685Z,86924.00
2023-12-22T00:15:03.561Z,86917.00
2023-12-22T00:16:03.526Z,86919.00
2023-12-22T00:17:03.463Z,86930.00
2023-12-22T00:18:03.441Z,86931.00
2023-12-22T00:19:03.405Z,86925.00
2023-12-22T00:20:03.368Z,86923.00
2023-12-22T00:21:03.265Z,86927.00
2023-12-22T00:22:03.203Z,86927.00
2023-12-22T00:23:03.164Z,86929.00
2023-12-22T00:24:03.297Z,86930.00
2023-12-22T00:25:03.125Z,86926.00
2023-12-22T00:26:03.042Z,86924.00
2023-12-22T00:27:02.971Z,86922.00
2023-12-22T00:28:02.932Z,86929.00
2023-12-22T00:29:02.904Z,86937.00
2023-12-22T00:30:02.984Z,86950.00
2023-12-22T00:31:02.939Z,86947.00
2023-12-22T00:32:02.904Z,86950.00
2023-12-22T00:33:02.956Z,86956.00
2023-12-22T00:34:02.931Z,86960.00
2023-12-22T00:35:02.928Z,86952.00
2023-12-22T00:36:02.886Z,86950.00
2023-12-22T00:37:02.889Z,86958.00
2023-12-22T00:38:03.025Z,86967.00
2023-12-22T00:39:02.949Z,86976.00
2023-12-22T00:40:02.951Z,86957.00
2023-12-22T00:41:02.961Z,86949.00
2023-12-22T00:42:03.004Z,86955.00
2023-12-22T00:43:03.000Z,86948.00
2023-12-22T00:44:02.976Z,86955.00
2023-12-22T00:45:02.996Z,86974.00
2023-12-22T00:46:03.016Z,86960.00
2023-12-22T00:47:03.003Z,86939.00
2023-12-22T00:48:03.095Z,86915.00
2023-12-22T00:49:03.037Z,86925.00
2023-12-22T00:50:03.076Z,86930.00
2023-12-22T00:51:03.004Z,86932.00
2023-12-22T00:52:03.006Z,86932.00
2023-12-22T00:53:02.957Z,86911.00
2023-12-22T00:54:02.925Z,86889.00
2023-12-22T00:55:02.900Z,86875.00
2023-12-22T00:56:02.841Z,86896.00
2023-12-22T00:57:02.786Z,86897.00
2023-12-22T00:58:02.723Z,86905.00
2023-12-22T00:59:11.037Z,86875.00
2023-12-22T01:00:03.636Z,86868.00
2023-12-22T01:01:02.580Z,86870.00
2023-12-22T01:02:02.511Z,86869.00
2023-12-22T01:03:02.478Z,86878.00
2023-12-22T01:04:02.413Z,86895.00
2023-12-22T01:05:02.475Z,86897.00
2023-12-22T01:06:02.412Z,86885.00
2023-12-22T01:07:02.286Z,86883.00
2023-12-22T01:08:02.317Z,86908.00
2023-12-22T01:09:02.212Z,86899.00
2023-12-22T01:10:02.209Z,86889.00
2023-12-22T01:11:02.124Z,86884.00
2023-12-22T01:12:02.097Z,86878.00
2023-12-22T01:13:02.033Z,86874.00
2023-12-22T01:14:02.068Z,86875.00
2023-12-22T01:15:01.992Z,86889.00
2023-12-22T01:16:01.890Z,86871.00
2023-12-22T01:17:01.860Z,86855.00
2023-12-22T01:18:01.894Z,86843.00
2023-12-22T01:19:01.998Z,86836.00
2023-12-22T01:20:01.724Z,86846.00
2023-12-22T01:21:01.780Z,86876.00
2023-12-22T01:22:01.624Z,86884.00
2023-12-22T01:23:01.592Z,86886.00
2023-12-22T01:24:01.536Z,86878.00
2023-12-22T01:25:01.445Z,86871.00
2023-12-22T01:26:01.462Z,86863.00
2023-12-22T01:27:01.355Z,86872.00
2023-12-22T01:28:04.603Z,86883.00
2023-12-22T01:29:01.261Z,86883.00
2023-12-22T01:30:01.171Z,86895.00
2023-12-22T01:31:01.164Z,86901.00
2023-12-22T01:32:01.124Z,86908.00
2023-12-22T01:33:01.090Z,86919.00
2023-12-22T01:34:01.087Z,86912.00
2023-12-22T01:35:00.883Z,86897.00
2023-12-22T01:36:00.853Z,86902.00
2023-12-22T01:37:00.771Z,86931.00
2023-12-22T01:38:00.793Z,86883.00
2023-12-22T01:39:00.686Z,86864.00
2023-12-22T01:40:00.643Z,86887.00
2023-12-22T01:41:00.697Z,86894.00
2023-12-22T01:42:00.597Z,86896.00
2023-12-22T01:43:00.557Z,86884.00
2023-12-22T01:44:00.548Z,86883.00
2023-12-22T01:45:00.465Z,86898.00
2023-12-22T01:46:00.404Z,86886.00
2023-12-22T01:47:00.399Z,86876.00
2023-12-22T01:48:00.402Z,86877.00
2023-12-22T01:49:00.310Z,86869.00
2023-12-22T01:50:00.317Z,86864.00
2023-12-22T01:51:00.167Z,86876.00
2023-12-22T01:52:00.105Z,86884.00
2023-12-22T01:53:00.149Z,86873.00
2023-12-22T01:54:00.036Z,86871.00
2023-12-22T01:54:59.976Z,86903.00
2023-12-22T01:56:00.024Z,86900.00
2023-12-22T01:56:59.881Z,86891.00
2023-12-22T01:57:59.836Z,86889.00
2023-12-22T01:58:59.819Z,86896.00
2023-12-22T01:59:59.788Z,86899.00
2023-12-22T02:00:59.864Z,86899.00
2023-12-22T02:01:59.880Z,86896.00
2023-12-22T02:02:59.812Z,86897.00
2023-12-22T02:03:59.907Z,86896.00
2023-12-22T02:04:59.904Z,86889.00
2023-12-22T02:05:59.932Z,86899.00
2023-12-22T02:06:59.835Z,86906.00
2023-12-22T02:07:59.837Z,86900.00
2023-12-22T02:08:59.715Z,86892.00
2023-12-22T02:09:59.670Z,86893.00
2023-12-22T02:10:59.662Z,86903.00
2023-12-22T02:11:59.606Z,86912.00
2023-12-22T02:12:59.553Z,86921.00
2023-12-22T02:13:59.559Z,86924.00
2023-12-22T02:14:59.476Z,86899.00
2023-12-22T02:15:59.427Z,86900.00
2023-12-22T02:16:59.426Z,86898.00
2023-12-22T02:17:59.316Z,86895.00
2023-12-22T02:18:59.319Z,86906.00
2023-12-22T02:19:59.249Z,86918.00
2023-12-22T02:20:59.174Z,86905.00
2023-12-22T02:21:59.140Z,86904.00
2023-12-22T02:22:59.124Z,86915.00
2023-12-22T02:23:59.018Z,86889.00
2023-12-22T02:24:58.979Z,86890.00
2023-12-22T02:25:59.030Z,86893.00
2023-12-22T02:26:58.883Z,86909.00
2023-12-22T02:27:58.847Z,86900.00
2023-12-22T02:28:58.814Z,86880.00
2023-12-22T02:29:58.715Z,86879.00
2023-12-22T02:30:58.682Z,86893.00
2023-12-22T02:31:58.694Z,86892.00
2023-12-22T02:32:58.660Z,86891.00
2023-12-22T02:33:58.653Z,86887.00
2023-12-22T02:34:58.585Z,86899.00
2023-12-22T02:35:58.418Z,86904.00
2023-12-22T02:36:58.348Z,86907.00
2023-12-22T02:37:58.356Z,86912.00
2023-12-22T02:38:58.277Z,86890.00
2023-12-22T02:39:58.219Z,86885.00
2023-12-22T02:40:58.272Z,86894.00
2023-12-22T02:41:58.224Z,86897.00
2023-12-22T02:42:58.249Z,86912.00
2023-12-22T02:43:58.277Z,86904.00
2023-12-22T02:44:58.220Z,86921.00
2023-12-22T02:45:58.196Z,86951.00
2023-12-22T02:46:58.250Z,86936.00
2023-12-22T02:47:58.282Z,86915.00
2023-12-22T02:48:58.294Z,86919.00
2023-12-22T02:49:58.295Z,86941.00
2023-12-22T02:50:58.232Z,86969.00
2023-12-22T02:51:58.203Z,86966.00
2023-12-22T02:52:58.314Z,86961.00
2023-12-22T02:53:58.203Z,86956.00
2023-12-22T02:54:58.185Z,86954.00
2023-12-22T02:55:58.239Z,86953.00
2023-12-22T02:56:58.205Z,86951.00
2023-12-22T02:57:58.220Z,86939.00
2023-12-22T02:58:58.232Z,86943.00
2023-12-22T02:59:58.154Z,86944.00
2023-12-22T03:00:58.204Z,86946.00
2023-12-22T03:01:58.173Z,86938.00
2023-12-22T03:02:58.156Z,86923.00
2023-12-22T03:03:58.139Z,86932.00
2023-12-22T03:04:58.163Z,86934.00
2023-12-22T03:05:58.141Z,86928.00
2023-12-22T03:06:58.125Z,86926.00
2023-12-22T03:07:58.169Z,86942.00
2023-12-22T03:08:58.092Z,86942.00
2023-12-22T03:09:58.121Z,86922.00
2023-12-22T03:10:58.036Z,86912.00
2023-12-22T03:11:57.962Z,86897.00
2023-12-22T03:12:57.965Z,86918.00
2023-12-22T03:13:57.928Z,86920.00
2023-12-22T03:14:57.870Z,86910.00
2023-12-22T03:15:57.831Z,86924.00
2023-12-22T03:16:57.834Z,86920.00
2023-12-22T03:17:57.806Z,86919.00
2023-12-22T03:18:57.755Z,86934.00
2023-12-22T03:19:57.737Z,86919.00
2023-12-22T03:20:57.648Z,86915.00
2023-12-22T03:21:57.572Z,86918.00
2023-12-22T03:22:57.664Z,86922.00
2023-12-22T03:23:57.579Z,86934.00
2023-12-22T03:24:57.565Z,86929.00
2023-12-22T03:25:57.617Z,86922.00
2023-12-22T03:26:57.581Z,86910.00
2023-12-22T03:27:57.587Z,86917.00
2023-12-22T03:28:57.631Z,86915.00
2023-12-22T03:29:57.606Z,86914.00
2023-12-22T03:30:57.626Z,86911.00
2023-12-22T03:31:57.623Z,86908.00
2023-12-22T03:32:57.692Z,86916.00
2023-12-22T03:33:57.695Z,86906.00
2023-12-22T03:34:57.723Z,86895.00
2023-12-22T03:35:57.607Z,86897.00
2023-12-22T03:36:57.564Z,86895.00
2023-12-22T03:37:57.619Z,86893.00
2023-12-22T03:38:57.578Z,86906.00
2023-12-22T03:39:57.632Z,86914.00
2023-12-22T03:40:57.667Z,86902.00
2023-12-22T03:41:57.673Z,86879.00
2023-12-22T03:42:58.267Z,86890.00
2023-12-22T03:43:57.760Z,86909.00
2023-12-22T03:44:57.687Z,86915.00
2023-12-22T03:45:57.685Z,86926.00
2023-12-22T03:46:57.693Z,86930.00
2023-12-22T03:47:57.637Z,86928.00
2023-12-22T03:48:57.657Z,86929.00
2023-12-22T03:49:57.586Z,86936.00
2023-12-22T03:50:57.493Z,86943.00
2023-12-22T03:51:57.448Z,86956.00
2023-12-22T03:52:57.494Z,86948.00
2023-12-22T03:53:57.334Z,86934.00
2023-12-22T03:54:57.303Z,86942.00
2023-12-22T03:55:57.294Z,86937.00
2023-12-22T03:56:57.200Z,86943.00
2023-12-22T03:57:57.149Z,86946.00
2023-12-22T03:58:57.247Z,86958.00
2023-12-22T03:59:57.063Z,86952.00
2023-12-22T04:00:57.065Z,86950.00
2023-12-22T04:01:57.094Z,86962.00
2023-12-22T04:02:58.509Z,86967.00
2023-12-22T04:03:57.059Z,86975.00
2023-12-22T04:04:57.166Z,86975.00
2023-12-22T04:05:57.014Z,86960.00
2023-12-22T04:06:56.975Z,86930.00
2023-12-22T04:07:56.990Z,86934.00
2023-12-22T04:08:56.939Z,86958.00
2023-12-22T04:09:56.963Z,86962.00
2023-12-22T04:10:56.972Z,86960.00
2023-12-22T04:11:56.949Z,86957.00
2023-12-22T04:12:56.906Z,86951.00
2023-12-22T04:13:56.958Z,86945.00
2023-12-22T04:14:56.860Z,86942.00
2023-12-22T04:15:56.830Z,86944.00
2023-12-22T04:16:56.786Z,86942.00
2023-12-22T04:17:56.911Z,86943.00
2023-12-22T04:18:56.902Z,86946.00
2023-12-22T04:19:57.063Z,86943.00
2023-12-22T04:20:56.821Z,86939.00
2023-12-22T04:21:56.796Z,86941.00
2023-12-22T04:22:56.837Z,86946.00
2023-12-22T04:23:56.721Z,86931.00
2023-12-22T04:24:56.673Z,86940.00
2023-12-22T04:25:56.727Z,86946.00
2023-12-22T04:26:56.596Z,86936.00
2023-12-22T04:27:56.486Z,86927.00
2023-12-22T04:28:56.532Z,86929.00
2023-12-22T04:29:56.397Z,86938.00
2023-12-22T04:30:56.338Z,86951.00
2023-12-22T04:31:56.342Z,86949.00
2023-12-22T04:32:56.250Z,86950.00
2023-12-22T04:33:56.178Z,86956.00
2023-12-22T04:34:56.261Z,86964.00
2023-12-22T04:35:56.166Z,86966.00
2023-12-22T04:36:56.143Z,86980.00
2023-12-22T04:37:56.151Z,86984.00
2023-12-22T04:38:56.073Z,86975.00
2023-12-22T04:39:56.030Z,86970.00
2023-12-22T04:40:56.108Z,86979.00
2023-12-22T04:41:55.974Z,86970.00
2023-12-22T04:42:55.958Z,86979.00
2023-12-22T04:43:55.996Z,86994.00
2023-12-22T04:44:55.875Z,86999.00
2023-12-22T04:45:55.859Z,86997.00
2023-12-22T04:46:55.914Z,86997.00
2023-12-22T04:47:55.832Z,86996.00
2023-12-22T04:48:55.849Z,87006.00
2023-12-22T04:49:55.816Z,87032.00
2023-12-22T04:50:55.767Z,87002.00
2023-12-22T04:51:57.199Z,87009.00
2023-12-22T04:52:56.028Z,87037.00
2023-12-22T04:53:55.974Z,87045.00
2023-12-22T04:54:56.014Z,87036.00
2023-12-22T04:55:56.121Z,87033.00
2023-12-22T04:56:56.079Z,87042.00
2023-12-22T04:57:56.075Z,87026.00
2023-12-22T04:58:56.129Z,87034.00
2023-12-22T04:59:56.054Z,87038.00
2023-12-22T05:00:56.036Z,87038.00
2023-12-22T05:01:56.035Z,87032.00
2023-12-22T05:02:56.020Z,87023.00
2023-12-22T05:03:56.016Z,87014.00
2023-12-22T05:04:56.102Z,86989.00
2023-12-22T05:05:56.072Z,87005.00
2023-12-22T05:06:56.044Z,87010.00
2023-12-22T05:07:56.039Z,87006.00
2023-12-22T05:08:56.011Z,87000.00
2023-12-22T05:09:55.978Z,86997.00
2023-12-22T05:10:55.969Z,87001.00
2023-12-22T05:11:55.865Z,87023.00
2023-12-22T05:12:55.850Z,87004.00
2023-12-22T05:13:55.878Z,87004.00
2023-12-22T05:14:55.715Z,87007.00
2023-12-22T05:15:55.667Z,87000.00
2023-12-22T05:16:55.763Z,87008.00
2023-12-22T05:17:55.632Z,87009.00
2023-12-22T05:18:55.613Z,87013.00
2023-12-22T05:19:55.568Z,87011.00
2023-12-22T05:20:55.476Z,87006.00
2023-12-22T05:21:55.445Z,87000.00
2023-12-22T05:22:55.481Z,86996.00
2023-12-22T05:23:55.408Z,86998.00
2023-12-22T05:24:55.386Z,87002.00
2023-12-22T05:25:55.496Z,87017.00
2023-12-22T05:26:55.342Z,87018.00
2023-12-22T05:27:55.330Z,87031.00
2023-12-22T05:28:55.322Z,87014.00
2023-12-22T05:29:55.263Z,87022.00
2023-12-22T05:30:55.222Z,87034.00
2023-12-22T05:31:55.267Z,87028.00
2023-12-22T05:32:55.214Z,87047.00
2023-12-22T05:33:55.138Z,87029.00
2023-12-22T05:34:55.180Z,87045.00
2023-12-22T05:35:55.138Z,87038.00
2023-12-22T05:36:55.069Z,87020.00
2023-12-22T05:37:55.058Z,87019.00
2023-12-22T05:38:55.001Z,87017.00
2023-12-22T05:39:54.986Z,87015.00
2023-12-22T05:41:02.611Z,87027.00
2023-12-22T05:42:02.979Z,87048.00
2023-12-22T05:43:02.534Z,87047.00
2023-12-22T05:44:02.681Z,87051.00
2023-12-22T05:45:02.616Z,87063.00
2023-12-22T05:46:02.605Z,87059.00
2023-12-22T05:47:02.688Z,87080.00
2023-12-22T05:48:02.694Z,87095.00
2023-12-22T05:49:02.790Z,87062.00
2023-12-22T05:50:02.897Z,87071.00
2023-12-22T05:51:02.670Z,87097.00
2023-12-22T05:52:02.699Z,87076.00
2023-12-22T05:53:02.758Z,87087.00
2023-12-22T05:54:02.703Z,87063.00
2023-12-22T05:55:02.734Z,87067.00
2023-12-22T05:56:02.788Z,87066.00
2023-12-22T05:57:02.778Z,87075.00
2023-12-22T05:58:02.785Z,87081.00
2023-12-22T05:59:02.868Z,87095.00
2023-12-22T06:00:02.906Z,87093.00
2023-12-22T06:01:02.863Z,87087.00
2023-12-22T06:02:02.834Z,87073.00
2023-12-22T06:03:02.820Z,87090.00
2023-12-22T06:04:02.826Z,87084.00
2023-12-22T06:05:02.955Z,87078.00
2023-12-22T06:06:06.135Z,87078.00
2023-12-22T06:07:02.869Z,87077.00
2023-12-22T06:08:02.923Z,87082.00
2023-12-22T06:09:02.886Z,87081.00
2023-12-22T06:10:02.872Z,87080.00
2023-12-22T06:11:02.911Z,87082.00
2023-12-22T06:12:02.845Z,87076.00
2023-12-22T06:13:02.855Z,87073.00
2023-12-22T06:14:03.034Z,87070.00
2023-12-22T06:15:02.883Z,87061.00
2023-12-22T06:16:02.900Z,87060.00
2023-12-22T06:17:02.937Z,87074.00
2023-12-22T06:18:02.968Z,87067.00
2023-12-22T06:19:02.967Z,87076.00
2023-12-22T06:20:03.033Z,87066.00
2023-12-22T06:21:03.168Z,87080.00
2023-12-22T06:22:03.026Z,87098.00
2023-12-22T06:23:03.048Z,87080.00
2023-12-22T06:24:03.066Z,87062.00
2023-12-22T06:25:03.103Z,87076.00
2023-12-22T06:26:03.142Z,87081.00
2023-12-22T06:27:03.125Z,87071.00
2023-12-22T06:28:03.165Z,87067.00
2023-12-22T06:29:03.312Z,87073.00
2023-12-22T06:30:03.351Z,87069.00
2023-12-22T06:31:03.206Z,87065.00
2023-12-22T06:32:03.308Z,87064.00
2023-12-22T06:33:03.316Z,87071.00
2023-12-22T06:34:03.696Z,87074.00
2023-12-22T06:35:03.384Z,87074.00
2023-12-22T06:36:03.363Z,87069.00
2023-12-22T06:37:03.300Z,87064.00
2023-12-22T06:38:03.393Z,87059.00
2023-12-22T06:39:03.350Z,87068.00
2023-12-22T06:40:28.714Z,87074.00
2023-12-22T06:41:29.013Z,87083.00
2023-12-22T06:42:28.702Z,87100.00
2023-12-22T06:43:28.654Z,87092.00
2023-12-22T06:44:28.672Z,87109.00
2023-12-22T06:45:28.678Z,87115.00
2023-12-22T06:46:28.970Z,87119.00
2023-12-22T06:47:28.927Z,87121.00
2023-12-22T06:48:28.814Z,87122.00
2023-12-22T06:49:28.834Z,87107.00
2023-12-22T06:50:29.372Z,87116.00
2023-12-22T06:51:28.854Z,87130.00
2023-12-22T06:52:28.831Z,87143.00
2023-12-22T06:53:28.837Z,87132.00
2023-12-22T06:54:28.965Z,87137.00
2023-12-22T06:55:29.461Z,87147.00
2023-12-22T06:56:28.840Z,87148.00
2023-12-22T06:57:29.480Z,87127.00
2023-12-22T06:58:29.033Z,87126.00
2023-12-22T06:59:29.928Z,87136.00
2023-12-22T07:00:28.911Z,87144.00
2023-12-22T07:01:28.933Z,87159.00
2023-12-22T07:02:30.222Z,87151.00
2023-12-22T07:03:29.105Z,87141.00
2023-12-22T07:04:29.020Z,87123.00
2023-12-22T07:05:29.062Z,87126.00
2023-12-22T07:06:29.046Z,87143.00
2023-12-22T07:07:29.087Z,87150.00
2023-12-22T07:08:29.156Z,87147.00
2023-12-22T07:09:29.207Z,87145.00
2023-12-22T07:10:29.328Z,87150.00
2023-12-22T07:11:37.395Z,87157.00
2023-12-22T07:12:30.464Z,87166.00
2023-12-22T07:13:30.595Z,87164.00
2023-12-22T07:14:29.313Z,87169.00
2023-12-22T07:15:29.443Z,87158.00
2023-12-22T07:16:29.530Z,87159.00
2023-12-22T07:17:29.358Z,87149.00
2023-12-22T07:18:29.432Z,87162.00
2023-12-22T07:19:29.369Z,87174.00
2023-12-22T07:20:29.351Z,87176.00
2023-12-22T07:21:29.357Z,87188.00
2023-12-22T07:22:29.696Z,87179.00
2023-12-22T07:23:29.461Z,87177.00
2023-12-22T07:24:29.614Z,87178.00
2023-12-22T07:25:30.970Z,87178.00
2023-12-22T07:26:30.449Z,87166.00
2023-12-22T07:27:29.516Z,87169.00
2023-12-22T07:28:29.537Z,87198.00
2023-12-22T07:29:29.611Z,87203.00
2023-12-22T07:30:29.547Z,87181.00
2023-12-22T07:31:29.629Z,87196.00
2023-12-22T07:32:30.016Z,87195.00
2023-12-22T07:33:29.674Z,87211.00
2023-12-22T07:34:30.051Z,87220.00
2023-12-22T07:35:29.618Z,87215.00
2023-12-22T07:36:29.625Z,87207.00
2023-12-22T07:37:29.748Z,87213.00
2023-12-22T07:38:29.661Z,87209.00
2023-12-22T07:39:29.706Z,87196.00
2023-12-22T07:40:29.716Z,87214.00
2023-12-22T07:41:29.765Z,87228.00
2023-12-22T07:42:29.728Z,87212.00
2023-12-22T07:43:29.830Z,87223.00
2023-12-22T07:44:29.728Z,87232.00
2023-12-22T07:45:29.783Z,87220.00
2023-12-22T07:46:29.746Z,87217.00
2023-12-22T07:47:29.900Z,87230.00
2023-12-22T07:48:29.807Z,87228.00
2023-12-22T07:49:30.313Z,87227.00
2023-12-22T07:50:29.871Z,87245.00
2023-12-22T07:51:29.804Z,87247.00
2023-12-22T07:52:29.866Z,87231.00
2023-12-22T07:53:29.828Z,87235.00
2023-12-22T07:54:29.870Z,87245.00
2023-12-22T07:55:29.929Z,87259.00
2023-12-22T07:56:32.174Z,87272.00
2023-12-22T07:57:29.966Z,87277.00
2023-12-22T07:58:30.063Z,87267.00
2023-12-22T07:59:31.849Z,87267.00
2023-12-22T08:00:30.271Z,87255.00
2023-12-22T08:01:30.370Z,87243.00
2023-12-22T08:02:30.402Z,87245.00
2023-12-22T08:03:30.501Z,87248.00
2023-12-22T08:04:30.666Z,87259.00
2023-12-22T08:05:30.534Z,87263.00
2023-12-22T08:06:30.807Z,87257.00
2023-12-22T08:07:31.510Z,87277.00
2023-12-22T08:08:30.641Z,87274.00
2023-12-22T08:09:30.652Z,87274.00
2023-12-22T08:10:30.675Z,87263.00
2023-12-22T08:11:30.664Z,87268.00
2023-12-22T08:12:30.717Z,87267.00
2023-12-22T08:13:30.791Z,87259.00
2023-12-22T08:14:30.767Z,87278.00
2023-12-22T08:15:36.377Z,87263.00
2023-12-22T08:16:31.811Z,87271.00
2023-12-22T08:17:30.870Z,87263.00
2023-12-22T08:18:31.685Z,87265.00
2023-12-22T08:19:32.121Z,87258.00
2023-12-22T08:20:34.252Z,87261.00
2023-12-22T08:21:39.417Z,87277.00
2023-12-22T08:22:33.219Z,87294.00
2023-12-22T08:23:32.084Z,87299.00
2023-12-22T08:24:31.173Z,87287.00
2023-12-22T08:25:31.146Z,87295.00
2023-12-22T08:26:31.098Z,87283.00
2023-12-22T08:27:31.112Z,87285.00
2023-12-22T08:28:31.144Z,87294.00
2023-12-22T08:29:31.449Z,87298.00
2023-12-22T08:30:31.161Z,87291.00
2023-12-22T08:31:31.196Z,87300.00
2023-12-22T08:32:31.242Z,87300.00
2023-12-22T08:33:31.273Z,87285.00
2023-12-22T08:34:31.295Z,87291.00
2023-12-22T08:35:31.246Z,87286.00
2023-12-22T08:36:31.287Z,87296.00
2023-12-22T08:37:31.285Z,87289.00
2023-12-22T08:38:31.400Z,87283.00
2023-12-22T08:39:31.399Z,87285.00
2023-12-22T08:40:31.686Z,87276.00
2023-12-22T08:41:31.450Z,87272.00
2023-12-22T08:42:31.505Z,87284.00
2023-12-22T08:43:31.512Z,87295.00
2023-12-22T08:44:31.475Z,87303.00
2023-12-22T08:45:31.452Z,87308.00
2023-12-22T08:46:31.580Z,87301.00
2023-12-22T08:47:31.537Z,87312.00
2023-12-22T08:48:31.586Z,87312.00
2023-12-22T08:49:31.550Z,87304.00
2023-12-22T08:50:31.986Z,87308.00
2023-12-22T08:51:31.688Z,87318.00
2023-12-22T08:52:31.601Z,87308.00
2023-12-22T08:53:31.597Z,87329.00
2023-12-22T08:54:31.665Z,87323.00
2023-12-22T08:55:31.758Z,87312.00
2023-12-22T08:56:31.788Z,87311.00
2023-12-22T08:57:31.863Z,87307.00
2023-12-22T08:58:31.910Z,87314.00
2023-12-22T08:59:31.913Z,87324.00
2023-12-22T09:00:31.924Z,87326.00
2023-12-22T09:01:31.965Z,87329.00
2023-12-22T09:02:31.942Z,87326.00
2023-12-22T09:03:32.478Z,87333.00
2023-12-22T09:04:32.045Z,87330.00
2023-12-22T09:05:32.081Z,87321.00
2023-12-22T09:06:32.016Z,87326.00
2023-12-22T09:07:32.002Z,87327.00
2023-12-22T09:08:31.969Z,87329.00
2023-12-22T09:09:32.043Z,87334.00
2023-12-22T09:10:32.079Z,87339.00
2023-12-22T09:11:32.024Z,87327.00
2023-12-22T09:12:32.065Z,87329.00
2023-12-22T09:13:32.050Z,87336.00
2023-12-22T09:14:32.066Z,87343.00
2023-12-22T09:15:32.040Z,87339.00
2023-12-22T09:16:32.105Z,87330.00
2023-12-22T09:17:32.233Z,87339.00
2023-12-22T09:18:32.319Z,87340.00
2023-12-22T09:19:32.309Z,87347.00
2023-12-22T09:20:32.524Z,87341.00
2023-12-22T09:21:32.262Z,87333.00
2023-12-22T09:22:32.379Z,87339.00
2023-12-22T09:23:32.343Z,87329.00
2023-12-22T09:24:32.392Z,87329.00
2023-12-22T09:25:32.544Z,87326.00
2023-12-22T09:26:32.439Z,87326.00
2023-12-22T09:27:32.490Z,87328.00
2023-12-22T09:28:32.698Z,87316.00
2023-12-22T09:29:32.585Z,87329.00
2023-12-22T09:30:32.651Z,87335.00
2023-12-22T09:31:33.506Z,87329.00
2023-12-22T09:32:32.992Z,87323.00
2023-12-22T09:33:32.829Z,87315.00
2023-12-22T09:34:32.884Z,87322.00
2023-12-22T09:35:32.839Z,87317.00
2023-12-22T09:36:32.906Z,87316.00
2023-12-22T09:37:33.496Z,87326.00
2023-12-22T09:38:33.002Z,87327.00
2023-12-22T09:39:33.001Z,87324.00
2023-12-22T09:40:33.119Z,87321.00
2023-12-22T09:41:33.217Z,87328.00
2023-12-22T09:42:33.124Z,87330.00
2023-12-22T09:43:33.169Z,87331.00
2023-12-22T09:44:33.160Z,87331.00
2023-12-22T09:45:33.307Z,87335.00
2023-12-22T09:46:33.268Z,87338.00
2023-12-22T09:47:33.287Z,87311.00
2023-12-22T09:48:33.270Z,87319.00
2023-12-22T09:49:33.436Z,87311.00
2023-12-22T09:50:33.432Z,87309.00
2023-12-22T09:51:33.456Z,87314.00
2023-12-22T09:52:34.508Z,87317.00
2023-12-22T09:53:33.544Z,87318.00
2023-12-22T09:54:33.701Z,87332.00
2023-12-22T09:55:33.620Z,87320.00
2023-12-22T09:56:33.668Z,87313.00
2023-12-22T09:57:33.752Z,87309.00
2023-12-22T09:58:33.879Z,87300.00
2023-12-22T09:59:33.969Z,87314.00
2023-12-22T10:00:33.948Z,87309.00
2023-12-22T10:01:34.058Z,87312.00
2023-12-22T10:02:33.999Z,87297.00
2023-12-22T10:03:34.101Z,87290.00
2023-12-22T10:04:34.267Z,87281.00
2023-12-22T10:05:34.393Z,87279.00
2023-12-22T10:06:34.237Z,87287.00
2023-12-22T10:07:34.339Z,87293.00
2023-12-22T10:08:34.322Z,87283.00
2023-12-22T10:09:35.382Z,87297.00
2023-12-22T10:10:34.533Z,87297.00
2023-12-22T10:11:34.524Z,87303.00
2023-12-22T10:12:34.569Z,87297.00
2023-12-22T10:13:34.685Z,87285.00
2023-12-22T10:14:36.640Z,87287.00
2023-12-22T10:15:34.818Z,87298.00
2023-12-22T10:16:35.527Z,87306.00
2023-12-22T10:17:34.739Z,87298.00
2023-12-22T10:18:34.842Z,87299.00
2023-12-22T10:19:34.808Z,87292.00
2023-12-22T10:20:34.813Z,87304.00
2023-12-22T10:21:35.973Z,87306.00
2023-12-22T10:22:34.838Z,87298.00
2023-12-22T10:23:34.824Z,87301.00
2023-12-22T10:24:34.798Z,87322.00
2023-12-22T10:25:34.888Z,87327.00
2023-12-22T10:26:34.816Z,87328.00
2023-12-22T10:27:34.823Z,87331.00
2023-12-22T10:28:34.822Z,87342.00
2023-12-22T10:29:34.766Z,87345.00
2023-12-22T10:30:34.792Z,87333.00
2023-12-22T10:31:35.534Z,87331.00
2023-12-22T10:32:35.005Z,87337.00
2023-12-22T10:33:35.987Z,87344.00
2023-12-22T10:34:35.066Z,87328.00
2023-12-22T10:35:35.098Z,87332.00
2023-12-22T10:36:35.108Z,87336.00
2023-12-22T10:37:35.159Z,87337.00
2023-12-22T10:38:35.316Z,87333.00
2023-12-22T10:39:35.382Z,87324.00
2023-12-22T10:40:35.357Z,87328.00
2023-12-22T10:41:35.423Z,87339.00
2023-12-22T10:42:35.421Z,87336.00
2023-12-22T10:43:35.510Z,87338.00
2023-12-22T10:44:35.647Z,87326.00
2023-12-22T10:45:35.690Z,87321.00
2023-12-22T10:46:35.813Z,87314.00
2023-12-22T10:47:35.832Z,87300.00
2023-12-22T10:48:36.031Z,87304.00
2023-12-22T10:49:35.956Z,87309.00
2023-12-22T10:50:36.000Z,87316.00
2023-12-22T10:51:36.047Z,87317.00
2023-12-22T10:52:36.165Z,87311.00
2023-12-22T10:53:36.187Z,87301.00
2023-12-22T10:54:36.208Z,87302.00
2023-12-22T10:55:36.317Z,87313.00
2023-12-22T10:56:36.385Z,87324.00
2023-12-22T10:57:36.367Z,87317.00
2023-12-22T10:58:36.444Z,87323.00
2023-12-22T10:59:40.540Z,87324.00
2023-12-22T11:00:36.541Z,87319.00
2023-12-22T11:01:36.517Z,87317.00
2023-12-22T11:02:36.943Z,87320.00
2023-12-22T11:03:36.565Z,87331.00
2023-12-22T11:04:36.615Z,87335.00
2023-12-22T11:05:36.573Z,87338.00
2023-12-22T11:06:36.680Z,87337.00
2023-12-22T11:07:36.666Z,87334.00
2023-12-22T11:08:37.476Z,87335.00
2023-12-22T11:09:36.668Z,87339.00
2023-12-22T11:10:36.999Z,87340.00
2023-12-22T11:11:36.709Z,87344.00
2023-12-22T11:12:36.755Z,87341.00
2023-12-22T11:13:36.824Z,87338.00
2023-12-22T11:14:36.796Z,87323.00
2023-12-22T11:15:36.818Z,87323.00
2023-12-22T11:16:36.909Z,87330.00
2023-12-22T11:17:37.078Z,87324.00
2023-12-22T11:18:36.930Z,87329.00
2023-12-22T11:19:36.973Z,87330.00
2023-12-22T11:20:36.953Z,87343.00
2023-12-22T11:21:36.953Z,87350.00
2023-12-22T11:22:36.945Z,87348.00
2023-12-22T11:23:36.969Z,87349.00
2023-12-22T11:24:36.929Z,87337.00
2023-12-22T11:25:36.940Z,87336.00
2023-12-22T11:26:36.908Z,87348.00
2023-12-22T11:27:36.880Z,87354.00
2023-12-22T11:28:36.876Z,87354.00
2023-12-22T11:29:36.821Z,87347.00
2023-12-22T11:30:36.814Z,87347.00
2023-12-22T11:31:36.834Z,87351.00
2023-12-22T11:32:36.867Z,87354.00
2023-12-22T11:33:36.887Z,87361.00
2023-12-22T11:34:37.568Z,87360.00
2023-12-22T11:35:36.884Z,87351.00
2023-12-22T11:36:36.852Z,87359.00
2023-12-22T11:37:36.982Z,87369.00
2023-12-22T11:38:36.885Z,87368.00
2023-12-22T11:39:36.945Z,87366.00
2023-12-22T11:40:37.016Z,87361.00
2023-12-22T11:41:36.942Z,87355.00
2023-12-22T11:42:36.955Z,87362.00
2023-12-22T11:43:37.038Z,87358.00
2023-12-22T11:44:37.041Z,87361.00